Time;durP1;ratioP1;P1;durP2;ratioP2;P2;SDS_P1;SDS_P2;PMS_P1;PMS_P2;Temp;Humidity;BMP_temperature;BMP_pressure;BME280_temperature;BME280_humidity;BME280_pressure;Samples;Min_cycle;Max_cycle;Signal;HPM_P1;HPM_P2
2021/12/17 00:00:32;;;;;;;;;;;24.00;51.60;;;;;;1558764;74;1701;-67
2021/12/17 00:07:07;;;;;;;;;;;24.10;51.60;;;;;;1564403;74;858;-66
2021/12/17 00:09:09;;;;;;;;;;;24.00;51.50;;;;;;1568447;74;790;-65
2021/12/17 00:11:11;;;;;;;;;;;24.10;51.70;;;;;;1561976;74;784;-65
2021/12/17 00:13:12;;;;;;;;;;;24.10;51.70;;;;;;1562111;74;1942;-65
2021/12/17 00:15:14;;;;;;;;;;;24.10;51.70;;;;;;1563136;74;1134;-67
2021/12/17 00:17:21;;;;;;;;;;;24.00;51.50;;;;;;1564020;74;780;-67
2021/12/17 00:19:52;;;;;;;;;;;24.10;51.70;;;;;;1566725;74;1791;-67
2021/12/17 00:49:07;;;;;;;;;;;24.00;51.80;;;;;;1601755;73;704;-67
2021/12/17 00:53:31;;;;;;;;;;;23.90;51.90;;;;;;1578240;74;1924;-68
2021/12/17 00:55:32;;;;;;;;;;;23.90;51.90;;;;;;1591783;70;2111;-67
2021/12/17 00:57:44;;;;;;;;;;;24.00;51.90;;;;;;1624291;72;658;-66
2021/12/17 00:59:41;;;;;;;;;;;24.00;51.90;;;;;;1622374;72;1157;-67
2021/12/17 01:01:44;;;;;;;;;;;24.00;51.90;;;;;;1626661;71;748;-66
2021/12/17 01:03:46;;;;;;;;;;;24.00;52.00;;;;;;1635129;72;1052;-66
2021/12/17 01:05:47;;;;;;;;;;;24.00;51.90;;;;;;1635574;71;1212;-66
2021/12/17 01:07:50;;;;;;;;;;;24.00;51.90;;;;;;1616414;72;712;-67
2021/12/17 01:09:52;;;;;;;;;;;24.00;51.80;;;;;;1639925;72;720;-67
2021/12/17 01:11:55;;;;;;;;;;;24.00;51.90;;;;;;1618714;72;729;-66
2021/12/17 01:13:56;;;;;;;;;;;24.00;51.90;;;;;;1614884;71;1934;-66
2021/12/17 01:15:58;;;;;;;;;;;24.00;51.90;;;;;;1632442;71;1127;-67
2021/12/17 01:18:06;;;;;;;;;;;24.00;52.00;;;;;;1633153;71;791;-67
2021/12/17 01:20:31;;;;;;;;;;;24.00;51.90;;;;;;1637479;72;1533;-67
2021/12/17 01:22:45;;;;;;;;;;;24.00;51.90;;;;;;1611228;72;1647;-67
2021/12/17 01:36:00;;;;;;;;;;;23.90;52.00;;;;;;1642672;71;1611;-67
2021/12/17 01:42:38;;;;;;;;;;;24.00;52.00;;;;;;1623372;72;808;-68
2021/12/17 01:44:42;;;;;;;;;;;24.00;52.00;;;;;;1620781;71;762;-68
2021/12/17 01:46:44;;;;;;;;;;;23.90;51.90;;;;;;1612612;71;1141;-68
2021/12/17 01:48:57;;;;;;;;;;;23.90;51.90;;;;;;1638193;72;719;-66
2021/12/17 01:59:56;;;;;;;;;;;23.90;52.00;;;;;;1614724;71;865;-66
2021/12/17 02:02:01;;;;;;;;;;;23.90;52.00;;;;;;1628006;72;1703;-65
2021/12/17 02:04:05;;;;;;;;;;;24.00;51.90;;;;;;1619816;72;1614;-67
2021/12/17 02:06:07;;;;;;;;;;;24.00;51.90;;;;;;1619277;71;1168;-66
2021/12/17 02:08:10;;;;;;;;;;;23.90;51.80;;;;;;1623185;72;795;-66
2021/12/17 02:10:53;;;;;;;;;;;24.00;51.90;;;;;;1635972;72;719;-66
2021/12/17 02:12:46;;;;;;;;;;;24.00;51.80;;;;;;1618127;72;956;-67
2021/12/17 02:22:13;;;;;;;;;;;23.90;51.90;;;;;;1640878;71;1665;-67
2021/12/17 02:28:47;;;;;;;;;;;24.00;52.10;;;;;;1630069;72;1679;-66
2021/12/17 02:31:02;;;;;;;;;;;24.00;52.10;;;;;;1636036;71;1545;-66
2021/12/17 02:32:51;;;;;;;;;;;23.90;52.10;;;;;;1624530;72;1657;-67
2021/12/17 02:35:16;;;;;;;;;;;23.90;52.10;;;;;;1621523;71;1921;-67
2021/12/17 02:37:06;;;;;;;;;;;23.90;52.00;;;;;;1632988;71;1539;-66
2021/12/17 02:40:02;;;;;;;;;;;24.00;52.10;;;;;;1635938;71;1181;-66
2021/12/17 02:45:49;;;;;;;;;;;23.90;52.00;;;;;;1618996;71;1611;-66
2021/12/17 02:47:52;;;;;;;;;;;24.00;52.00;;;;;;1633692;72;760;-67
2021/12/17 02:49:54;;;;;;;;;;;24.00;52.00;;;;;;1631587;72;1739;-68
2021/12/17 02:51:56;;;;;;;;;;;23.90;52.00;;;;;;1621720;72;708;-69
2021/12/17 02:53:58;;;;;;;;;;;24.00;51.90;;;;;;1635185;71;1901;-67
2021/12/17 02:56:01;;;;;;;;;;;24.00;52.00;;;;;;1633136;71;1133;-68
2021/12/17 02:58:04;;;;;;;;;;;24.00;52.00;;;;;;1629475;72;806;-67
2021/12/17 03:00:06;;;;;;;;;;;24.00;52.00;;;;;;1626307;72;726;-67
2021/12/17 03:02:09;;;;;;;;;;;24.00;52.00;;;;;;1621071;72;774;-65
2021/12/17 03:04:10;;;;;;;;;;;24.00;51.90;;;;;;1633035;72;769;-66
2021/12/17 03:06:12;;;;;;;;;;;23.90;51.90;;;;;;1637417;71;1063;-65
2021/12/17 03:08:15;;;;;;;;;;;24.00;51.90;;;;;;1632760;72;750;-65
2021/12/17 03:10:17;;;;;;;;;;;24.00;51.90;;;;;;1635594;72;683;-67
2021/12/17 03:12:30;;;;;;;;;;;23.90;51.80;;;;;;1634735;72;726;-66
2021/12/17 03:14:28;;;;;;;;;;;24.00;51.80;;;;;;1631659;72;1916;-66
2021/12/17 03:16:36;;;;;;;;;;;23.90;51.90;;;;;;1634380;72;1551;-67
2021/12/17 03:23:30;;;;;;;;;;;23.90;51.80;;;;;;1621771;72;1672;-62
2021/12/17 03:25:30;;;;;;;;;;;24.00;51.80;;;;;;1627089;71;1152;-64
2021/12/17 03:27:32;;;;;;;;;;;23.90;52.00;;;;;;1628061;72;661;-64
2021/12/17 03:29:34;;;;;;;;;;;23.90;51.90;;;;;;1624098;71;739;-65
2021/12/17 03:31:36;;;;;;;;;;;24.00;52.00;;;;;;1631917;72;732;-63
2021/12/17 03:33:41;;;;;;;;;;;23.90;51.90;;;;;;1632720;72;749;-66
2021/12/17 03:35:42;;;;;;;;;;;24.00;51.90;;;;;;1630383;72;1915;-64
2021/12/17 03:37:44;;;;;;;;;;;24.00;51.90;;;;;;1632672;71;788;-64
2021/12/17 03:39:46;;;;;;;;;;;24.00;51.80;;;;;;1635045;72;793;-65
2021/12/17 03:41:51;;;;;;;;;;;24.00;51.80;;;;;;1634042;72;703;-65
2021/12/17 03:43:54;;;;;;;;;;;24.00;51.80;;;;;;1635991;71;1134;-66
2021/12/17 03:45:55;;;;;;;;;;;24.00;51.80;;;;;;1629192;71;1175;-66
2021/12/17 03:47:57;;;;;;;;;;;24.00;51.80;;;;;;1632672;71;1073;-65
2021/12/17 03:49:59;;;;;;;;;;;24.00;51.70;;;;;;1624288;72;767;-63
2021/12/17 03:52:07;;;;;;;;;;;24.10;51.80;;;;;;1626818;72;1057;-66
2021/12/17 03:54:09;;;;;;;;;;;24.10;51.70;;;;;;1649260;71;700;-64
2021/12/17 03:56:11;;;;;;;;;;;24.20;51.60;;;;;;1619986;71;1930;-65
2021/12/17 03:58:12;;;;;;;;;;;24.10;51.60;;;;;;1626762;71;786;-64
2021/12/17 04:00:14;;;;;;;;;;;24.30;51.70;;;;;;1624783;71;776;-66
2021/12/17 04:02:16;;;;;;;;;;;24.20;51.50;;;;;;1614769;71;761;-63
2021/12/17 04:04:18;;;;;;;;;;;24.30;51.50;;;;;;1624139;72;734;-63
2021/12/17 04:06:20;;;;;;;;;;;24.30;51.50;;;;;;1622317;71;1173;-65
2021/12/17 04:08:22;;;;;;;;;;;24.30;51.40;;;;;;1621332;71;709;-65
2021/12/17 04:10:26;;;;;;;;;;;24.20;51.30;;;;;;1614652;71;751;-65
2021/12/17 04:14:48;;;;;;;;;;;24.30;51.40;;;;;;1613063;71;1911;-65
2021/12/17 04:16:50;;;;;;;;;;;24.30;51.40;;;;;;1628590;71;1678;-68
2021/12/17 04:18:52;;;;;;;;;;;24.20;51.20;;;;;;1622135;71;856;-68
2021/12/17 04:20:54;;;;;;;;;;;24.40;51.30;;;;;;1622732;71;724;-68
2021/12/17 04:22:55;;;;;;;;;;;24.40;51.20;;;;;;1631090;71;790;-65
2021/12/17 04:24:57;;;;;;;;;;;24.30;51.20;;;;;;1625804;71;1145;-70
2021/12/17 04:26:59;;;;;;;;;;;24.30;51.10;;;;;;1631028;72;675;-66
2021/12/17 04:29:01;;;;;;;;;;;24.40;51.00;;;;;;1635463;72;707;-63
2021/12/17 04:31:03;;;;;;;;;;;24.40;50.90;;;;;;1628349;71;799;-66
2021/12/17 04:33:06;;;;;;;;;;;24.40;50.80;;;;;;1623561;71;762;-65
2021/12/17 04:35:08;;;;;;;;;;;24.40;51.00;;;;;;1625743;71;1956;-65
2021/12/17 04:37:10;;;;;;;;;;;24.50;51.10;;;;;;1625942;71;770;-65
2021/12/17 04:39:12;;;;;;;;;;;24.40;51.00;;;;;;1618758;71;701;-66
2021/12/17 04:43:37;;;;;;;;;;;24.30;51.00;;;;;;1615980;71;853;-66
2021/12/17 04:45:26;;;;;;;;;;;24.40;50.90;;;;;;1622976;71;1620;-64
2021/12/17 04:58:54;;;;;;;;;;;24.30;51.10;;;;;;1617369;71;831;-65
2021/12/17 05:00:58;;;;;;;;;;;24.30;51.10;;;;;;1613551;71;699;-66
2021/12/17 05:03:00;;;;;;;;;;;24.30;51.10;;;;;;1614001;71;723;-67
2021/12/17 05:05:06;;;;;;;;;;;24.30;51.10;;;;;;1614831;71;1173;-67
2021/12/17 05:07:08;;;;;;;;;;;24.30;51.10;;;;;;1620089;71;1182;-64
2021/12/17 05:09:21;;;;;;;;;;;24.30;51.10;;;;;;1613995;71;700;-65
2021/12/17 05:22:31;;;;;;;;;;;24.20;51.20;;;;;;1623387;71;659;-69
2021/12/17 05:24:33;;;;;;;;;;;24.20;51.10;;;;;;1622346;71;729;-65
2021/12/17 05:26:35;;;;;;;;;;;24.30;51.10;;;;;;1614598;71;1078;-66
2021/12/17 05:28:37;;;;;;;;;;;24.30;51.10;;;;;;1611367;71;785;-66
2021/12/17 05:30:45;;;;;;;;;;;24.30;51.10;;;;;;1619137;71;754;-66
2021/12/17 05:32:43;;;;;;;;;;;24.30;51.00;;;;;;1612939;71;1378;-66
2021/12/17 05:34:44;;;;;;;;;;;24.30;51.00;;;;;;1619179;71;1915;-66
2021/12/17 05:36:46;;;;;;;;;;;24.40;51.00;;;;;;1622694;71;1123;-67
2021/12/17 05:38:48;;;;;;;;;;;24.40;51.00;;;;;;1620239;72;731;-69
2021/12/17 05:40:50;;;;;;;;;;;24.30;50.90;;;;;;1627607;72;719;-66
2021/12/17 05:42:55;;;;;;;;;;;24.30;51.00;;;;;;1622677;71;772;-65
2021/12/17 05:44:59;;;;;;;;;;;24.30;51.00;;;;;;1632883;71;1221;-70
2021/12/17 05:46:59;;;;;;;;;;;24.30;51.00;;;;;;1619691;72;1460;-68
2021/12/17 05:49:01;;;;;;;;;;;24.30;51.00;;;;;;1625742;71;731;-70
2021/12/17 05:51:04;;;;;;;;;;;24.30;51.00;;;;;;1633924;72;778;-67
2021/12/17 05:53:06;;;;;;;;;;;24.30;50.80;;;;;;1620389;72;748;-67
2021/12/17 05:55:08;;;;;;;;;;;24.30;50.80;;;;;;1628764;71;1934;-64
2021/12/17 05:57:10;;;;;;;;;;;24.30;50.70;;;;;;1618949;72;693;-66
2021/12/17 05:59:12;;;;;;;;;;;24.40;50.70;;;;;;1625104;72;774;-69
2021/12/17 06:01:14;;;;;;;;;;;24.40;50.70;;;;;;1626214;72;777;-67
2021/12/17 06:03:17;;;;;;;;;;;24.40;50.70;;;;;;1621198;72;729;-65
2021/12/17 06:05:19;;;;;;;;;;;24.40;50.70;;;;;;1633064;71;1157;-65
2021/12/17 06:07:25;;;;;;;;;;;24.40;50.50;;;;;;1619618;72;719;-65
2021/12/17 06:09:27;;;;;;;;;;;24.30;50.50;;;;;;1632382;72;721;-66
2021/12/17 06:11:29;;;;;;;;;;;24.40;50.50;;;;;;1620007;71;681;-67
2021/12/17 06:13:30;;;;;;;;;;;24.50;50.50;;;;;;1610585;71;750;-69
2021/12/17 06:15:32;;;;;;;;;;;24.50;50.40;;;;;;1615305;71;1980;-65
2021/12/17 06:17:34;;;;;;;;;;;24.50;50.40;;;;;;1630092;72;816;-66
2021/12/17 06:19:36;;;;;;;;;;;24.50;50.40;;;;;;1631972;71;779;-65
2021/12/17 06:21:38;;;;;;;;;;;24.50;50.40;;;;;;1627576;72;773;-66
2021/12/17 06:23:40;;;;;;;;;;;24.50;50.50;;;;;;1605321;72;732;-66
2021/12/17 06:25:42;;;;;;;;;;;24.40;50.40;;;;;;1630207;71;1077;-67
2021/12/17 06:27:44;;;;;;;;;;;24.40;50.40;;;;;;1623900;72;695;-66
2021/12/17 06:29:46;;;;;;;;;;;24.40;50.50;;;;;;1630190;72;732;-67
2021/12/17 06:31:47;;;;;;;;;;;24.30;50.60;;;;;;1636372;71;731;-67
2021/12/17 06:33:49;;;;;;;;;;;24.30;50.70;;;;;;1636042;71;712;-66
2021/12/17 06:35:51;;;;;;;;;;;24.40;50.70;;;;;;1630171;71;1947;-65
2021/12/17 06:37:53;;;;;;;;;;;24.30;50.70;;;;;;1626637;71;721;-67
2021/12/17 06:39:55;;;;;;;;;;;24.30;50.70;;;;;;1623455;71;740;-67
2021/12/17 06:41:57;;;;;;;;;;;24.40;50.70;;;;;;1622554;72;786;-67
2021/12/17 06:44:00;;;;;;;;;;;24.30;50.70;;;;;;1632467;72;675;-68
2021/12/17 06:46:17;;;;;;;;;;;24.30;50.70;;;;;;1622134;72;1190;-67
2021/12/17 06:48:05;;;;;;;;;;;24.30;50.80;;;;;;1627887;71;1552;-68
2021/12/17 07:01:18;;;;;;;;;;;24.20;50.70;;;;;;1626720;71;823;-66
2021/12/17 07:10:30;;;;;;;;;;;24.10;50.60;;;;;;1635918;72;709;-69
2021/12/17 07:21:54;;;;;;;;;;;24.10;50.50;;;;;;1622202;72;1640;-68
2021/12/17 07:28:30;;;;;;;;;;;24.00;50.50;;;;;;1634415;72;1638;-68
2021/12/17 07:32:41;;;;;;;;;;;24.00;50.30;;;;;;1635153;71;739;-69
2021/12/17 07:34:52;;;;;;;;;;;24.00;50.40;;;;;;1632464;72;1742;-67
2021/12/17 07:38:55;;;;;;;;;;;24.00;50.30;;;;;;1624277;71;743;-67
2021/12/17 07:40:57;;;;;;;;;;;24.00;50.30;;;;;;1608775;71;783;-67
2021/12/17 07:43:02;;;;;;;;;;;24.00;50.20;;;;;;1606008;71;913;-66
2021/12/17 07:45:03;;;;;;;;;;;24.00;50.30;;;;;;1612314;71;1437;-68
2021/12/17 07:47:05;;;;;;;;;;;24.00;50.40;;;;;;1609466;71;739;-66
2021/12/17 07:49:07;;;;;;;;;;;24.00;50.30;;;;;;1618899;71;745;-69
2021/12/17 07:51:09;;;;;;;;;;;24.00;50.30;;;;;;1617149;71;772;-66
2021/12/17 07:53:11;;;;;;;;;;;23.90;50.20;;;;;;1614915;72;795;-67
2021/12/17 07:55:13;;;;;;;;;;;24.00;50.20;;;;;;1611012;71;1144;-66
2021/12/17 07:57:15;;;;;;;;;;;24.00;50.30;;;;;;1617618;71;1931;-67
2021/12/17 07:59:17;;;;;;;;;;;24.00;50.30;;;;;;1630039;71;793;-67
2021/12/17 08:01:19;;;;;;;;;;;24.00;50.20;;;;;;1627900;71;702;-67
2021/12/17 08:03:21;;;;;;;;;;;24.00;50.20;;;;;;1636515;72;723;-68
2021/12/17 08:05:23;;;;;;;;;;;24.00;50.20;;;;;;1634602;72;1138;-67
2021/12/17 08:07:25;;;;;;;;;;;24.00;50.20;;;;;;1614361;71;698;-66
2021/12/17 08:09:28;;;;;;;;;;;24.00;50.20;;;;;;1608665;71;810;-66
2021/12/17 08:11:36;;;;;;;;;;;24.00;50.20;;;;;;1611975;71;715;-68
2021/12/17 08:13:36;;;;;;;;;;;24.00;50.20;;;;;;1615276;71;1104;-66
2021/12/17 08:15:45;;;;;;;;;;;24.00;50.20;;;;;;1620574;71;1157;-66
2021/12/17 08:18:17;;;;;;;;;;;24.00;50.20;;;;;;1615638;72;1448;-65
2021/12/17 08:24:47;;;;;;;;;;;24.00;50.20;;;;;;1625150;72;1669;-68
2021/12/17 08:26:53;;;;;;;;;;;24.00;50.20;;;;;;1625434;71;1140;-70
2021/12/17 08:29:12;;;;;;;;;;;24.00;50.20;;;;;;1627259;72;1609;-71
2021/12/17 08:30:58;;;;;;;;;;;24.00;50.20;;;;;;1614944;71;1668;-67
2021/12/17 08:33:00;;;;;;;;;;;24.00;50.20;;;;;;1615922;72;730;-66
2021/12/17 08:35:02;;;;;;;;;;;24.00;50.20;;;;;;1609767;71;1190;-66
2021/12/17 08:37:05;;;;;;;;;;;24.00;50.20;;;;;;1612083;71;1929;-66
2021/12/17 08:39:07;;;;;;;;;;;24.00;50.20;;;;;;1634037;71;781;-64
2021/12/17 08:41:09;;;;;;;;;;;24.00;50.20;;;;;;1633285;72;723;-65
2021/12/17 08:43:11;;;;;;;;;;;24.00;50.20;;;;;;1630886;72;730;-66
2021/12/17 08:45:13;;;;;;;;;;;24.00;50.20;;;;;;1635067;71;1129;-67
2021/12/17 08:47:15;;;;;;;;;;;24.00;50.20;;;;;;1633007;72;788;-66
2021/12/17 08:49:17;;;;;;;;;;;24.00;50.20;;;;;;1632959;71;731;-67
2021/12/17 08:51:19;;;;;;;;;;;24.00;50.20;;;;;;1627666;72;718;-66
2021/12/17 08:53:20;;;;;;;;;;;24.00;50.20;;;;;;1634948;71;728;-69
2021/12/17 08:55:22;;;;;;;;;;;24.00;50.10;;;;;;1620673;71;1121;-66
2021/12/17 08:57:24;;;;;;;;;;;24.00;50.20;;;;;;1607608;71;2260;-66
2021/12/17 08:59:29;;;;;;;;;;;24.00;50.10;;;;;;1607252;71;804;-66
2021/12/17 09:01:30;;;;;;;;;;;24.00;50.20;;;;;;1609271;71;1171;-66
2021/12/17 09:03:32;;;;;;;;;;;24.00;50.10;;;;;;1609638;71;674;-66
2021/12/17 09:05:37;;;;;;;;;;;24.00;50.10;;;;;;1609568;71;1165;-66
2021/12/17 09:07:37;;;;;;;;;;;24.00;50.10;;;;;;1604496;71;1586;-68
2021/12/17 09:09:40;;;;;;;;;;;24.00;50.10;;;;;;1631377;71;755;-66
2021/12/17 09:11:42;;;;;;;;;;;24.00;50.00;;;;;;1636726;72;837;-65
2021/12/17 09:13:44;;;;;;;;;;;24.10;50.20;;;;;;1636140;72;955;-65
2021/12/17 09:15:45;;;;;;;;;;;24.10;50.20;;;;;;1633775;71;1148;-66
2021/12/17 09:17:47;;;;;;;;;;;24.10;50.20;;;;;;1634925;71;1947;-65
2021/12/17 09:19:49;;;;;;;;;;;24.00;50.00;;;;;;1632520;72;669;-66
2021/12/17 09:21:51;;;;;;;;;;;24.10;50.10;;;;;;1624992;72;679;-67
2021/12/17 09:23:53;;;;;;;;;;;24.00;50.00;;;;;;1634332;72;631;-66
2021/12/17 09:25:55;;;;;;;;;;;24.00;49.90;;;;;;1625259;72;1150;-67
2021/12/17 09:27:57;;;;;;;;;;;24.10;50.00;;;;;;1635123;72;762;-66
2021/12/17 09:29:59;;;;;;;;;;;24.00;49.90;;;;;;1629285;72;735;-68
2021/12/17 09:32:01;;;;;;;;;;;24.00;50.00;;;;;;1626385;72;736;-66
2021/12/17 09:34:02;;;;;;;;;;;24.10;50.10;;;;;;1617582;71;704;-65
2021/12/17 09:36:05;;;;;;;;;;;24.10;50.00;;;;;;1620282;71;1181;-66
2021/12/17 09:38:07;;;;;;;;;;;24.20;49.90;;;;;;1613789;71;1904;-65
2021/12/17 09:40:09;;;;;;;;;;;24.20;49.90;;;;;;1617786;71;695;-66
2021/12/17 09:42:11;;;;;;;;;;;24.20;49.90;;;;;;1618574;71;698;-65
2021/12/17 09:44:16;;;;;;;;;;;24.10;49.80;;;;;;1633417;71;724;-65
2021/12/17 09:46:17;;;;;;;;;;;24.10;49.90;;;;;;1626327;71;1089;-67
2021/12/17 09:48:19;;;;;;;;;;;24.20;49.90;;;;;;1639337;71;742;-65
2021/12/17 09:50:21;;;;;;;;;;;24.10;49.90;;;;;;1626106;71;734;-66
2021/12/17 09:52:24;;;;;;;;;;;24.20;49.90;;;;;;1617645;71;781;-65
2021/12/17 09:54:26;;;;;;;;;;;24.10;49.70;;;;;;1615543;71;762;-66
2021/12/17 09:56:28;;;;;;;;;;;24.20;49.70;;;;;;1617590;71;1940;-65
2021/12/17 09:58:30;;;;;;;;;;;24.10;49.80;;;;;;1613229;71;727;-66
2021/12/17 10:00:31;;;;;;;;;;;24.10;49.80;;;;;;1617844;71;989;-66
2021/12/17 10:02:33;;;;;;;;;;;24.10;49.70;;;;;;1623187;71;725;-66
2021/12/17 10:04:36;;;;;;;;;;;24.20;49.70;;;;;;1623767;72;775;-66
2021/12/17 10:06:37;;;;;;;;;;;24.10;49.70;;;;;;1634787;71;1145;-65
2021/12/17 10:08:41;;;;;;;;;;;24.20;49.70;;;;;;1629313;71;812;-68
2021/12/17 10:10:44;;;;;;;;;;;24.20;49.70;;;;;;1623482;72;1543;-66
2021/12/17 10:12:47;;;;;;;;;;;24.20;49.70;;;;;;1631552;71;773;-67
2021/12/17 10:15:08;;;;;;;;;;;24.20;49.70;;;;;;1630833;72;714;-65
2021/12/17 10:17:11;;;;;;;;;;;24.10;49.70;;;;;;1625514;71;1911;-69
2021/12/17 10:19:13;;;;;;;;;;;24.10;49.70;;;;;;1614154;71;914;-66
2021/12/17 10:21:22;;;;;;;;;;;24.20;49.70;;;;;;1634919;72;784;-66
2021/12/17 10:23:24;;;;;;;;;;;24.20;49.60;;;;;;1627572;72;799;-66
2021/12/17 10:25:26;;;;;;;;;;;24.20;49.60;;;;;;1626630;71;1158;-66
2021/12/17 10:27:29;;;;;;;;;;;24.30;49.70;;;;;;1626587;72;771;-69
2021/12/17 10:29:31;;;;;;;;;;;24.30;49.60;;;;;;1621234;72;740;-67
2021/12/17 10:31:34;;;;;;;;;;;24.30;49.50;;;;;;1638173;71;652;-71
2021/12/17 10:33:36;;;;;;;;;;;24.30;49.20;;;;;;1635716;72;702;-71
2021/12/17 10:35:40;;;;;;;;;;;24.30;47.50;;;;;;1634744;71;1030;-70
2021/12/17 10:37:43;;;;;;;;;;;24.20;46.50;;;;;;1629347;72;1912;-70
2021/12/17 10:39:46;;;;;;;;;;;24.20;46.00;;;;;;1635728;71;741;-72
2021/12/17 10:41:49;;;;;;;;;;;24.10;45.70;;;;;;1631393;71;712;-69
2021/12/17 10:43:56;;;;;;;;;;;24.10;45.50;;;;;;1626960;72;691;-70
2021/12/17 10:46:05;;;;;;;;;;;24.00;45.20;;;;;;1620114;71;1553;-70
2021/12/17 10:50:24;;;;;;;;;;;24.00;45.10;;;;;;1627778;72;861;-68
2021/12/17 10:52:41;;;;;;;;;;;23.90;45.00;;;;;;1636619;72;696;-67
2021/12/17 10:54:35;;;;;;;;;;;23.90;45.70;;;;;;1617513;72;1407;-66
2021/12/17 10:56:38;;;;;;;;;;;24.00;45.80;;;;;;1616575;72;1952;-67
2021/12/17 10:58:42;;;;;;;;;;;24.00;46.00;;;;;;1622123;72;703;-68
2021/12/17 11:00:52;;;;;;;;;;;24.00;45.60;;;;;;1626870;72;1100;-66
2021/12/17 11:02:54;;;;;;;;;;;23.90;45.70;;;;;;1622052;72;1809;-66
2021/12/17 11:04:56;;;;;;;;;;;23.90;45.80;;;;;;1629064;71;721;-68
2021/12/17 11:07:05;;;;;;;;;;;23.90;46.10;;;;;;1614208;71;791;-66
2021/12/17 11:09:06;;;;;;;;;;;23.80;46.20;;;;;;1626205;71;786;-66
2021/12/17 11:11:12;;;;;;;;;;;23.80;46.50;;;;;;1628719;71;698;-66
2021/12/17 11:13:16;;;;;;;;;;;23.80;46.70;;;;;;1634128;72;737;-65
2021/12/17 11:15:19;;;;;;;;;;;23.70;46.90;;;;;;1630326;71;1157;-66
2021/12/17 11:17:24;;;;;;;;;;;23.70;47.40;;;;;;1638028;72;1924;-66
2021/12/17 11:19:25;;;;;;;;;;;23.70;47.90;;;;;;1627900;71;659;-71
2021/12/17 11:21:27;;;;;;;;;;;23.60;48.10;;;;;;1622763;72;725;-66
2021/12/17 11:23:32;;;;;;;;;;;23.70;48.70;;;;;;1633894;72;719;-66
2021/12/17 11:25:33;;;;;;;;;;;23.70;49.40;;;;;;1629678;71;1255;-66
2021/12/17 11:27:35;;;;;;;;;;;23.70;50.20;;;;;;1631708;72;714;-66
2021/12/17 11:29:37;;;;;;;;;;;23.70;50.70;;;;;;1628893;72;679;-66
2021/12/17 11:31:38;;;;;;;;;;;23.70;51.30;;;;;;1632955;72;712;-66
2021/12/17 11:33:40;;;;;;;;;;;23.80;51.50;;;;;;1619176;72;775;-68
2021/12/17 11:35:43;;;;;;;;;;;23.70;51.60;;;;;;1632232;71;1219;-66
2021/12/17 11:37:45;;;;;;;;;;;23.70;51.90;;;;;;1634950;72;1914;-66
2021/12/17 11:39:52;;;;;;;;;;;23.70;52.10;;;;;;1648125;71;798;-67
2021/12/17 11:42:01;;;;;;;;;;;23.80;52.10;;;;;;1636866;71;1533;-65
2021/12/17 11:44:03;;;;;;;;;;;23.70;52.30;;;;;;1634147;71;752;-67
2021/12/17 11:46:05;;;;;;;;;;;23.80;52.30;;;;;;1633240;71;1150;-67
2021/12/17 11:48:18;;;;;;;;;;;23.70;52.30;;;;;;1628784;72;737;-69
2021/12/17 11:50:20;;;;;;;;;;;23.80;52.30;;;;;;1635217;72;842;-67
2021/12/17 11:52:35;;;;;;;;;;;23.80;52.20;;;;;;1635820;71;1065;-65
2021/12/17 11:54:37;;;;;;;;;;;23.70;52.30;;;;;;1634528;71;795;-66
2021/12/17 11:56:44;;;;;;;;;;;23.80;51.50;;;;;;1624062;71;1089;-66
2021/12/17 11:58:48;;;;;;;;;;;24.00;51.20;;;;;;1617446;72;1913;-67
2021/12/17 12:00:50;;;;;;;;;;;24.20;50.70;;;;;;1628501;72;755;-65
2021/12/17 12:02:57;;;;;;;;;;;24.30;50.40;;;;;;1623029;71;803;-68
2021/12/17 12:04:59;;;;;;;;;;;24.30;50.00;;;;;;1629302;72;1148;-69
2021/12/17 12:07:01;;;;;;;;;;;24.50;49.80;;;;;;1627805;72;579;-66
2021/12/17 12:09:05;;;;;;;;;;;24.50;49.60;;;;;;1624068;72;719;-66
2021/12/17 12:11:11;;;;;;;;;;;24.60;49.50;;;;;;1625581;72;1790;-67
2021/12/17 12:13:13;;;;;;;;;;;24.50;49.40;;;;;;1620395;72;830;-67
2021/12/17 12:15:20;;;;;;;;;;;24.50;49.40;;;;;;1612464;72;1101;-66
2021/12/17 12:17:40;;;;;;;;;;;24.40;49.40;;;;;;1619639;72;1912;-66
2021/12/17 12:19:48;;;;;;;;;;;24.50;49.40;;;;;;1625445;71;783;-65
2021/12/17 12:21:52;;;;;;;;;;;24.40;49.40;;;;;;1625689;72;735;-65
2021/12/17 12:23:57;;;;;;;;;;;24.30;49.30;;;;;;1632532;72;1797;-65
2021/12/17 12:26:04;;;;;;;;;;;24.40;49.40;;;;;;1622323;72;1220;-66
2021/12/17 12:28:06;;;;;;;;;;;24.30;49.40;;;;;;1631703;72;691;-66
2021/12/17 12:30:08;;;;;;;;;;;24.30;49.30;;;;;;1625457;72;719;-66
2021/12/17 12:32:14;;;;;;;;;;;24.30;49.30;;;;;;1626432;72;778;-64
2021/12/17 12:34:17;;;;;;;;;;;24.30;49.30;;;;;;1633120;72;755;-64
2021/12/17 12:36:20;;;;;;;;;;;24.30;49.30;;;;;;1624212;72;1161;-66
2021/12/17 12:38:24;;;;;;;;;;;24.20;49.20;;;;;;1627867;72;1912;-66
2021/12/17 12:40:32;;;;;;;;;;;24.20;49.10;;;;;;1631094;72;1572;-65
2021/12/17 12:42:30;;;;;;;;;;;24.20;49.20;;;;;;1600559;73;1081;-65
2021/12/17 12:44:45;;;;;;;;;;;24.20;49.10;;;;;;1626759;72;736;-65
2021/12/17 12:46:52;;;;;;;;;;;24.20;49.20;;;;;;1616202;72;1126;-63
2021/12/17 12:48:53;;;;;;;;;;;24.10;49.10;;;;;;1623708;71;1755;-66
2021/12/17 12:51:12;;;;;;;;;;;24.10;49.10;;;;;;1621873;71;777;-66
2021/12/17 12:53:14;;;;;;;;;;;24.10;49.10;;;;;;1629739;72;1009;-65
2021/12/17 12:55:20;;;;;;;;;;;24.20;49.10;;;;;;1636358;72;1146;-65
2021/12/17 12:57:30;;;;;;;;;;;24.20;49.10;;;;;;1636329;72;1923;-65
2021/12/17 12:59:31;;;;;;;;;;;24.10;49.10;;;;;;1625703;72;783;-66
2021/12/17 13:01:33;;;;;;;;;;;24.10;49.10;;;;;;1616157;71;798;-65
2021/12/17 13:03:37;;;;;;;;;;;24.10;49.10;;;;;;1634176;72;699;-66
2021/12/17 13:05:39;;;;;;;;;;;24.10;49.00;;;;;;1632375;71;1125;-66
2021/12/17 13:07:42;;;;;;;;;;;24.10;49.00;;;;;;1628655;72;741;-67
2021/12/17 13:09:44;;;;;;;;;;;24.10;49.00;;;;;;1621485;71;1543;-65
2021/12/17 13:11:46;;;;;;;;;;;24.10;49.00;;;;;;1628072;71;882;-65
2021/12/17 13:13:53;;;;;;;;;;;24.00;48.80;;;;;;1633307;71;767;-64
2021/12/17 13:20:43;;;;;;;;;;;24.00;48.70;;;;;;1623594;71;1631;-68
2021/12/17 13:22:53;;;;;;;;;;;24.00;48.70;;;;;;1623714;72;1651;-64
2021/12/17 13:24:37;;;;;;;;;;;24.00;48.70;;;;;;1616517;72;1682;-66
2021/12/17 13:26:46;;;;;;;;;;;24.00;48.60;;;;;;1624870;71;1080;-66
2021/12/17 13:28:50;;;;;;;;;;;24.00;48.60;;;;;;1620838;71;795;-66
2021/12/17 13:30:56;;;;;;;;;;;24.00;48.60;;;;;;1634459;71;698;-67
2021/12/17 13:32:57;;;;;;;;;;;24.00;48.60;;;;;;1627191;71;747;-66
2021/12/17 13:34:59;;;;;;;;;;;24.00;48.60;;;;;;1630927;72;1102;-66
2021/12/17 13:37:06;;;;;;;;;;;24.00;48.60;;;;;;1625690;72;725;-66
2021/12/17 13:39:08;;;;;;;;;;;24.00;48.60;;;;;;1632363;72;1889;-65
2021/12/17 13:41:10;;;;;;;;;;;23.90;48.50;;;;;;1616671;73;1312;-66
2021/12/17 13:43:12;;;;;;;;;;;23.90;48.60;;;;;;1617550;71;689;-65
2021/12/17 13:45:14;;;;;;;;;;;23.90;48.40;;;;;;1620674;71;1113;-65
2021/12/17 13:47:17;;;;;;;;;;;24.00;48.40;;;;;;1622315;72;779;-65
2021/12/17 13:49:20;;;;;;;;;;;23.90;48.40;;;;;;1632529;72;758;-66
2021/12/17 13:51:22;;;;;;;;;;;23.90;48.30;;;;;;1620804;72;732;-66
2021/12/17 13:53:23;;;;;;;;;;;23.90;48.30;;;;;;1629819;71;732;-66
2021/12/17 13:55:29;;;;;;;;;;;24.00;48.20;;;;;;1632077;71;1066;-65
2021/12/17 13:57:31;;;;;;;;;;;24.00;48.20;;;;;;1634301;71;793;-65
2021/12/17 13:59:34;;;;;;;;;;;24.00;48.20;;;;;;1627915;72;1922;-65
2021/12/17 14:01:36;;;;;;;;;;;23.90;48.10;;;;;;1622923;71;770;-67
2021/12/17 14:03:41;;;;;;;;;;;23.90;48.10;;;;;;1631605;72;775;-66
2021/12/17 14:05:49;;;;;;;;;;;23.90;48.10;;;;;;1635694;72;1641;-67
2021/12/17 14:07:49;;;;;;;;;;;24.00;48.00;;;;;;1619382;72;1606;-68
2021/12/17 14:09:53;;;;;;;;;;;23.90;48.00;;;;;;1623640;72;791;-65
2021/12/17 14:11:57;;;;;;;;;;;23.90;48.00;;;;;;1619316;71;1155;-66
2021/12/17 14:14:00;;;;;;;;;;;23.90;48.00;;;;;;1635132;72;1569;-65
2021/12/17 14:16:02;;;;;;;;;;;23.90;48.00;;;;;;1618615;71;1149;-66
2021/12/17 14:18:05;;;;;;;;;;;23.90;47.90;;;;;;1623483;72;1913;-66
2021/12/17 14:20:14;;;;;;;;;;;23.80;47.80;;;;;;1623480;72;772;-67
2021/12/17 14:22:31;;;;;;;;;;;23.90;47.80;;;;;;1636294;72;777;-65
2021/12/17 14:24:29;;;;;;;;;;;23.80;47.70;;;;;;1629699;72;956;-66
2021/12/17 14:26:32;;;;;;;;;;;23.90;47.80;;;;;;1619502;71;1157;-68
2021/12/17 14:28:36;;;;;;;;;;;23.80;47.70;;;;;;1628036;72;787;-68
2021/12/17 14:30:37;;;;;;;;;;;23.80;47.70;;;;;;1620314;72;666;-66
2021/12/17 14:32:44;;;;;;;;;;;23.90;47.70;;;;;;1626050;72;710;-69
2021/12/17 14:34:46;;;;;;;;;;;23.90;47.70;;;;;;1613636;72;1263;-65
2021/12/17 14:36:48;;;;;;;;;;;23.80;47.60;;;;;;1634023;71;1085;-66
2021/12/17 14:38:55;;;;;;;;;;;23.80;47.50;;;;;;1625627;72;1932;-66
2021/12/17 14:40:56;;;;;;;;;;;23.90;47.60;;;;;;1620788;72;1521;-65
2021/12/17 14:42:58;;;;;;;;;;;23.90;47.50;;;;;;1626699;72;711;-66
2021/12/17 14:45:04;;;;;;;;;;;23.80;47.40;;;;;;1621634;72;1146;-65
2021/12/17 14:47:16;;;;;;;;;;;23.80;47.30;;;;;;1633528;72;1125;-65
2021/12/17 15:03:02;;;;;;;;;;;23.70;47.30;;;;;;1612581;72;889;-67
2021/12/17 15:05:02;;;;;;;;;;;23.70;47.30;;;;;;1636947;71;1602;-65